sensor_id;sensor_type;location;lat;lon;timestamp;pressure;altitude;pressure_sealevel;temperature;humidity
3796;BME280;1913;50.660;7.834;2023-02-11T00:01:29;98948.00;;;3.95;100.00
3796;BME280;1913;50.660;7.834;2023-02-11T00:03:55;98941.94;;;3.83;100.00
3796;BME280;1913;50.660;7.834;2023-02-11T00:06:21;98938.06;;;3.78;100.00
3796;BME280;1913;50.660;7.834;2023-02-11T00:08:47;98945.34;;;3.73;100.00
3796;BME280;1913;50.660;7.834;2023-02-11T00:11:14;98939.25;;;3.74;100.00
3796;BME280;1913;50.660;7.834;2023-02-11T00:13:44;98935.91;;;3.83;100.00
3796;BME280;1913;50.660;7.834;2023-02-11T00:16:13;98933.69;;;3.78;100.00
3796;BME280;1913;50.660;7.834;2023-02-11T00:18:38;98933.19;;;3.73;100.00
3796;BME280;1913;50.660;7.834;2023-02-11T00:21:13;98930.94;;;3.69;100.00
3796;BME280;1913;50.660;7.834;2023-02-11T00:23:38;98931.91;;;3.79;100.00
3796;BME280;1913;50.660;7.834;2023-02-11T00:26:13;98936.72;;;3.72;100.00
3796;BME280;1913;50.660;7.834;2023-02-11T00:28:39;98928.94;;;3.72;100.00
3796;BME280;1913;50.660;7.834;2023-02-11T00:31:06;98927.97;;;3.73;100.00
3796;BME280;1913;50.660;7.834;2023-02-11T00:33:31;98920.66;;;3.67;100.00
3796;BME280;1913;50.660;7.834;2023-02-11T00:35:57;98921.34;;;3.69;100.00
3796;BME280;1913;50.660;7.834;2023-02-11T00:38:22;98920.75;;;3.66;100.00
3796;BME280;1913;50.660;7.834;2023-02-11T00:40:48;98925.59;;;3.59;100.00
3796;BME280;1913;50.660;7.834;2023-02-11T00:43:13;98911.09;;;3.56;100.00
3796;BME280;1913;50.660;7.834;2023-02-11T00:45:39;98913.53;;;3.47;100.00
3796;BME280;1913;50.660;7.834;2023-02-11T00:48:04;98913.16;;;3.40;100.00
3796;BME280;1913;50.660;7.834;2023-02-11T00:50:30;98906.66;;;3.34;100.00
3796;BME280;1913;50.660;7.834;2023-02-11T00:52:55;98908.16;;;3.26;100.00
3796;BME280;1913;50.660;7.834;2023-02-11T00:55:20;98910.38;;;3.19;100.00
3796;BME280;1913;50.660;7.834;2023-02-11T00:57:46;98904.75;;;3.25;100.00
3796;BME280;1913;50.660;7.834;2023-02-11T01:00:12;98902.38;;;3.22;100.00
3796;BME280;1913;50.660;7.834;2023-02-11T01:02:39;98903.91;;;3.25;100.00
3796;BME280;1913;50.660;7.834;2023-02-11T01:05:05;98904.00;;;3.12;100.00
3796;BME280;1913;50.660;7.834;2023-02-11T01:07:30;98901.50;;;3.10;100.00
3796;BME280;1913;50.660;7.834;2023-02-11T01:09:56;98896.53;;;3.07;100.00
3796;BME280;1913;50.660;7.834;2023-02-11T01:12:22;98901.13;;;3.04;100.00
3796;BME280;1913;50.660;7.834;2023-02-11T01:14:47;98905.97;;;3.08;100.00
3796;BME280;1913;50.660;7.834;2023-02-11T01:17:13;98906.22;;;3.05;100.00
3796;BME280;1913;50.660;7.834;2023-02-11T01:19:38;98903.22;;;2.99;100.00
3796;BME280;1913;50.660;7.834;2023-02-11T01:22:04;98897.13;;;3.00;100.00
3796;BME280;1913;50.660;7.834;2023-02-11T01:24:30;98890.19;;;2.87;100.00
3796;BME280;1913;50.660;7.834;2023-02-11T01:26:55;98894.97;;;2.94;100.00
3796;BME280;1913;50.660;7.834;2023-02-11T01:29:21;98895.31;;;2.89;100.00
3796;BME280;1913;50.660;7.834;2023-02-11T01:31:46;98891.19;;;2.98;100.00
3796;BME280;1913;50.660;7.834;2023-02-11T01:34:12;98888.72;;;2.96;100.00
3796;BME280;1913;50.660;7.834;2023-02-11T01:36:39;98881.16;;;2.93;100.00
3796;BME280;1913;50.660;7.834;2023-02-11T01:39:04;98883.53;;;2.96;100.00
3796;BME280;1913;50.660;7.834;2023-02-11T01:41:30;98880.09;;;2.96;100.00
3796;BME280;1913;50.660;7.834;2023-02-11T01:43:55;98878.66;;;2.92;100.00
3796;BME280;1913;50.660;7.834;2023-02-11T01:46:28;98871.94;;;2.89;100.00
3796;BME280;1913;50.660;7.834;2023-02-11T01:49:17;98869.66;;;2.84;100.00
3796;BME280;1913;50.660;7.834;2023-02-11T01:51:45;98872.16;;;2.86;100.00
3796;BME280;1913;50.660;7.834;2023-02-11T01:54:15;98870.84;;;2.92;100.00
3796;BME280;1913;50.660;7.834;2023-02-11T01:57:01;98882.19;;;2.91;100.00
3796;BME280;1913;50.660;7.834;2023-02-11T02:02:24;98878.16;;;2.86;100.00
3796;BME280;1913;50.660;7.834;2023-02-11T02:05:07;98883.94;;;2.79;100.00
3796;BME280;1913;50.660;7.834;2023-02-11T02:10:30;98893.53;;;2.66;100.00
3796;BME280;1913;50.660;7.834;2023-02-11T02:12:58;98896.81;;;2.56;100.00
3796;BME280;1913;50.660;7.834;2023-02-11T02:23:26;98899.22;;;2.47;100.00
3796;BME280;1913;50.660;7.834;2023-02-11T02:34:22;98897.53;;;2.22;100.00
3796;BME280;1913;50.660;7.834;2023-02-11T02:36:59;98898.16;;;2.12;100.00
3796;BME280;1913;50.660;7.834;2023-02-11T02:39:30;98892.06;;;2.13;100.00
3796;BME280;1913;50.660;7.834;2023-02-11T02:41:58;98892.16;;;2.12;100.00
3796;BME280;1913;50.660;7.834;2023-02-11T02:44:24;98893.81;;;2.13;100.00
3796;BME280;1913;50.660;7.834;2023-02-11T02:46:49;98896.84;;;2.07;100.00
3796;BME280;1913;50.660;7.834;2023-02-11T02:49:15;98895.69;;;2.11;100.00
3796;BME280;1913;50.660;7.834;2023-02-11T02:55:11;98879.47;;;2.20;100.00
3796;BME280;1913;50.660;7.834;2023-02-11T03:00:27;98887.59;;;2.15;100.00
3796;BME280;1913;50.660;7.834;2023-02-11T03:05:47;98854.22;;;1.98;100.00
3796;BME280;1913;50.660;7.834;2023-02-11T03:10:51;98859.66;;;1.82;100.00
3796;BME280;1913;50.660;7.834;2023-02-11T03:13:20;98859.25;;;1.63;100.00
3796;BME280;1913;50.660;7.834;2023-02-11T03:15:50;98855.41;;;1.56;100.00
3796;BME280;1913;50.660;7.834;2023-02-11T03:18:18;98857.22;;;1.42;100.00
3796;BME280;1913;50.660;7.834;2023-02-11T03:20:49;98846.31;;;1.37;100.00
3796;BME280;1913;50.660;7.834;2023-02-11T03:23:22;98836.88;;;1.24;100.00
3796;BME280;1913;50.660;7.834;2023-02-11T03:25:56;98830.25;;;1.19;100.00
3796;BME280;1913;50.660;7.834;2023-02-11T03:28:31;98823.72;;;1.01;100.00
3796;BME280;1913;50.660;7.834;2023-02-11T03:31:39;98816.47;;;0.93;100.00
3796;BME280;1913;50.660;7.834;2023-02-11T03:36:49;98818.06;;;0.82;100.00
3796;BME280;1913;50.660;7.834;2023-02-11T03:39:15;98833.53;;;0.83;100.00
3796;BME280;1913;50.660;7.834;2023-02-11T03:41:44;98829.19;;;0.84;100.00
3796;BME280;1913;50.660;7.834;2023-02-11T03:44:13;98839.66;;;0.95;100.00
3796;BME280;1913;50.660;7.834;2023-02-11T03:46:43;98846.00;;;1.04;100.00
3796;BME280;1913;50.660;7.834;2023-02-11T03:49:12;98848.38;;;1.07;100.00
3796;BME280;1913;50.660;7.834;2023-02-11T03:51:39;98844.34;;;1.15;100.00
3796;BME280;1913;50.660;7.834;2023-02-11T03:54:09;98834.81;;;1.16;100.00
3796;BME280;1913;50.660;7.834;2023-02-11T03:56:42;98832.69;;;0.95;100.00
3796;BME280;1913;50.660;7.834;2023-02-11T03:59:11;98837.56;;;0.87;100.00
3796;BME280;1913;50.660;7.834;2023-02-11T04:01:36;98835.72;;;0.89;100.00
3796;BME280;1913;50.660;7.834;2023-02-11T04:04:02;98841.72;;;1.03;100.00
3796;BME280;1913;50.660;7.834;2023-02-11T04:06:27;98840.63;;;1.07;100.00
3796;BME280;1913;50.660;7.834;2023-02-11T04:08:52;98843.59;;;1.13;100.00
3796;BME280;1913;50.660;7.834;2023-02-11T04:11:18;98839.66;;;1.20;100.00
3796;BME280;1913;50.660;7.834;2023-02-11T04:13:43;98837.31;;;1.17;100.00
3796;BME280;1913;50.660;7.834;2023-02-11T04:16:09;98835.31;;;1.08;100.00
3796;BME280;1913;50.660;7.834;2023-02-11T04:18:34;98832.31;;;1.02;100.00
3796;BME280;1913;50.660;7.834;2023-02-11T04:21:00;98831.72;;;1.11;100.00
3796;BME280;1913;50.660;7.834;2023-02-11T04:23:25;98836.44;;;1.17;100.00
3796;BME280;1913;50.660;7.834;2023-02-11T04:25:51;98834.81;;;1.16;100.00
3796;BME280;1913;50.660;7.834;2023-02-11T04:28:16;98827.66;;;1.19;100.00
3796;BME280;1913;50.660;7.834;2023-02-11T04:30:41;98823.94;;;1.24;100.00
3796;BME280;1913;50.660;7.834;2023-02-11T04:33:07;98820.00;;;1.31;100.00
3796;BME280;1913;50.660;7.834;2023-02-11T04:35:32;98821.34;;;1.36;100.00
3796;BME280;1913;50.660;7.834;2023-02-11T04:37:58;98819.38;;;1.40;100.00
3796;BME280;1913;50.660;7.834;2023-02-11T04:40:23;98814.69;;;1.45;100.00
3796;BME280;1913;50.660;7.834;2023-02-11T04:42:48;98805.88;;;1.35;100.00
3796;BME280;1913;50.660;7.834;2023-02-11T04:45:14;98812.94;;;1.46;100.00
3796;BME280;1913;50.660;7.834;2023-02-11T04:47:39;98816.13;;;1.49;100.00
3796;BME280;1913;50.660;7.834;2023-02-11T04:50:05;98817.63;;;1.53;100.00
3796;BME280;1913;50.660;7.834;2023-02-11T04:52:30;98809.59;;;1.56;100.00
3796;BME280;1913;50.660;7.834;2023-02-11T04:54:56;98807.66;;;1.47;100.00
3796;BME280;1913;50.660;7.834;2023-02-11T04:57:21;98806.50;;;1.38;100.00
3796;BME280;1913;50.660;7.834;2023-02-11T04:59:47;98812.75;;;1.36;100.00
3796;BME280;1913;50.660;7.834;2023-02-11T05:02:13;98814.94;;;1.29;100.00
3796;BME280;1913;50.660;7.834;2023-02-11T05:04:38;98817.59;;;1.28;100.00
3796;BME280;1913;50.660;7.834;2023-02-11T05:07:04;98825.09;;;1.32;100.00
3796;BME280;1913;50.660;7.834;2023-02-11T05:09:29;98827.34;;;1.50;100.00
3796;BME280;1913;50.660;7.834;2023-02-11T05:11:54;98831.06;;;1.46;100.00
3796;BME280;1913;50.660;7.834;2023-02-11T05:14:20;98824.84;;;1.48;100.00
3796;BME280;1913;50.660;7.834;2023-02-11T05:16:45;98823.09;;;1.49;100.00
3796;BME280;1913;50.660;7.834;2023-02-11T05:19:11;98817.81;;;1.50;100.00
3796;BME280;1913;50.660;7.834;2023-02-11T05:21:36;98817.63;;;1.53;100.00
3796;BME280;1913;50.660;7.834;2023-02-11T05:24:02;98821.94;;;1.53;100.00
3796;BME280;1913;50.660;7.834;2023-02-11T05:26:27;98818.66;;;1.25;100.00
3796;BME280;1913;50.660;7.834;2023-02-11T05:28:53;98818.88;;;1.22;100.00
3796;BME280;1913;50.660;7.834;2023-02-11T05:31:18;98808.19;;;1.14;100.00
3796;BME280;1913;50.660;7.834;2023-02-11T05:33:44;98812.25;;;1.18;100.00
3796;BME280;1913;50.660;7.834;2023-02-11T05:36:11;98820.41;;;1.12;100.00
3796;BME280;1913;50.660;7.834;2023-02-11T05:38:38;98814.81;;;1.18;100.00
3796;BME280;1913;50.660;7.834;2023-02-11T05:41:05;98818.84;;;1.35;100.00
3796;BME280;1913;50.660;7.834;2023-02-11T05:43:31;98811.06;;;1.48;100.00
3796;BME280;1913;50.660;7.834;2023-02-11T05:45:57;98820.94;;;1.42;100.00
3796;BME280;1913;50.660;7.834;2023-02-11T05:48:22;98820.09;;;1.55;100.00
3796;BME280;1913;50.660;7.834;2023-02-11T05:50:48;98830.03;;;1.61;100.00
3796;BME280;1913;50.660;7.834;2023-02-11T05:53:13;98822.44;;;1.71;100.00
3796;BME280;1913;50.660;7.834;2023-02-11T05:55:39;98819.09;;;1.81;100.00
3796;BME280;1913;50.660;7.834;2023-02-11T05:58:06;98819.41;;;1.89;100.00
3796;BME280;1913;50.660;7.834;2023-02-11T06:00:32;98813.16;;;1.92;100.00
3796;BME280;1913;50.660;7.834;2023-02-11T06:02:57;98817.38;;;2.06;100.00
3796;BME280;1913;50.660;7.834;2023-02-11T06:05:24;98816.06;;;1.87;100.00
3796;BME280;1913;50.660;7.834;2023-02-11T06:07:50;98815.66;;;1.94;100.00
3796;BME280;1913;50.660;7.834;2023-02-11T06:10:16;98808.56;;;2.08;100.00
3796;BME280;1913;50.660;7.834;2023-02-11T06:12:42;98805.31;;;2.18;100.00
3796;BME280;1913;50.660;7.834;2023-02-11T06:15:09;98807.44;;;2.24;100.00
3796;BME280;1913;50.660;7.834;2023-02-11T06:17:34;98804.25;;;2.20;100.00
3796;BME280;1913;50.660;7.834;2023-02-11T06:20:03;98795.78;;;2.18;100.00
3796;BME280;1913;50.660;7.834;2023-02-11T06:22:29;98781.63;;;2.22;100.00
3796;BME280;1913;50.660;7.834;2023-02-11T06:24:54;98787.69;;;2.34;100.00
3796;BME280;1913;50.660;7.834;2023-02-11T06:27:20;98782.28;;;2.13;100.00
3796;BME280;1913;50.660;7.834;2023-02-11T06:29:46;98790.78;;;2.15;100.00
3796;BME280;1913;50.660;7.834;2023-02-11T06:32:12;98795.56;;;2.21;100.00
3796;BME280;1913;50.660;7.834;2023-02-11T06:34:38;98792.22;;;2.19;100.00
3796;BME280;1913;50.660;7.834;2023-02-11T06:37:04;98796.63;;;2.30;100.00
3796;BME280;1913;50.660;7.834;2023-02-11T06:39:29;98793.63;;;2.36;100.00
3796;BME280;1913;50.660;7.834;2023-02-11T06:41:54;98793.88;;;2.44;100.00
3796;BME280;1913;50.660;7.834;2023-02-11T06:44:20;98792.84;;;2.47;100.00
3796;BME280;1913;50.660;7.834;2023-02-11T06:46:45;98794.50;;;2.59;100.00
3796;BME280;1913;50.660;7.834;2023-02-11T06:49:11;98802.22;;;2.60;100.00
3796;BME280;1913;50.660;7.834;2023-02-11T06:51:37;98806.56;;;2.60;100.00
3796;BME280;1913;50.660;7.834;2023-02-11T06:54:03;98811.16;;;2.56;100.00
3796;BME280;1913;50.660;7.834;2023-02-11T06:56:29;98817.81;;;2.72;100.00
3796;BME280;1913;50.660;7.834;2023-02-11T06:58:55;98832.06;;;2.66;100.00
3796;BME280;1913;50.660;7.834;2023-02-11T07:01:22;98821.69;;;2.66;100.00
3796;BME280;1913;50.660;7.834;2023-02-11T07:03:48;98832.19;;;2.64;100.00
3796;BME280;1913;50.660;7.834;2023-02-11T07:06:17;98824.22;;;2.55;100.00
3796;BME280;1913;50.660;7.834;2023-02-11T07:08:42;98826.81;;;2.55;100.00
3796;BME280;1913;50.660;7.834;2023-02-11T07:11:28;98827.03;;;2.52;100.00
3796;BME280;1913;50.660;7.834;2023-02-11T07:14:00;98828.56;;;2.43;100.00
3796;BME280;1913;50.660;7.834;2023-02-11T07:16:26;98832.25;;;2.52;100.00
3796;BME280;1913;50.660;7.834;2023-02-11T07:18:52;98830.94;;;2.46;100.00
3796;BME280;1913;50.660;7.834;2023-02-11T07:21:21;98827.03;;;2.52;100.00
3796;BME280;1913;50.660;7.834;2023-02-11T07:23:48;98830.72;;;2.49;100.00
3796;BME280;1913;50.660;7.834;2023-02-11T07:26:16;98827.56;;;2.57;100.00
3796;BME280;1913;50.660;7.834;2023-02-11T07:28:42;98837.44;;;2.52;100.00
3796;BME280;1913;50.660;7.834;2023-02-11T07:31:13;98842.13;;;2.47;100.00
3796;BME280;1913;50.660;7.834;2023-02-11T07:33:39;98842.53;;;2.53;100.00
3796;BME280;1913;50.660;7.834;2023-02-11T07:36:06;98848.75;;;2.51;100.00
3796;BME280;1913;50.660;7.834;2023-02-11T07:38:33;98845.00;;;2.55;100.00
3796;BME280;1913;50.660;7.834;2023-02-11T07:41:05;98848.88;;;2.49;100.00
3796;BME280;1913;50.660;7.834;2023-02-11T07:43:31;98847.94;;;2.50;100.00
3796;BME280;1913;50.660;7.834;2023-02-11T07:45:57;98859.72;;;2.30;100.00
3796;BME280;1913;50.660;7.834;2023-02-11T07:48:23;98857.44;;;2.38;100.00
3796;BME280;1913;50.660;7.834;2023-02-11T07:50:49;98858.13;;;2.40;100.00
3796;BME280;1913;50.660;7.834;2023-02-11T07:53:15;98854.59;;;2.42;100.00
3796;BME280;1913;50.660;7.834;2023-02-11T07:55:42;98851.50;;;2.36;100.00
3796;BME280;1913;50.660;7.834;2023-02-11T07:58:08;98856.56;;;2.38;100.00
3796;BME280;1913;50.660;7.834;2023-02-11T08:00:33;98864.69;;;2.33;100.00
3796;BME280;1913;50.660;7.834;2023-02-11T08:02:59;98866.69;;;2.54;100.00
3796;BME280;1913;50.660;7.834;2023-02-11T08:05:24;98877.50;;;2.48;100.00
3796;BME280;1913;50.660;7.834;2023-02-11T08:07:52;98875.09;;;2.57;100.00
3796;BME280;1913;50.660;7.834;2023-02-11T08:10:18;98870.91;;;2.68;100.00
3796;BME280;1913;50.660;7.834;2023-02-11T08:12:43;98874.28;;;2.57;100.00
3796;BME280;1913;50.660;7.834;2023-02-11T08:15:08;98863.50;;;2.74;100.00
3796;BME280;1913;50.660;7.834;2023-02-11T08:17:35;98866.50;;;2.57;100.00
3796;BME280;1913;50.660;7.834;2023-02-11T08:20:00;98863.44;;;2.63;100.00
3796;BME280;1913;50.660;7.834;2023-02-11T08:22:26;98862.28;;;2.67;100.00
3796;BME280;1913;50.660;7.834;2023-02-11T08:24:51;98870.28;;;2.64;100.00
3796;BME280;1913;50.660;7.834;2023-02-11T08:27:17;98865.38;;;2.72;100.00
3796;BME280;1913;50.660;7.834;2023-02-11T08:29:42;98864.31;;;2.75;100.00
3796;BME280;1913;50.660;7.834;2023-02-11T08:32:08;98869.28;;;2.78;100.00
3796;BME280;1913;50.660;7.834;2023-02-11T08:34:33;98874.63;;;2.87;100.00
3796;BME280;1913;50.660;7.834;2023-02-11T08:36:59;98879.13;;;2.85;100.00
3796;BME280;1913;50.660;7.834;2023-02-11T08:39:24;98882.97;;;3.04;100.00
3796;BME280;1913;50.660;7.834;2023-02-11T08:41:52;98883.94;;;3.14;100.00
3796;BME280;1913;50.660;7.834;2023-02-11T08:44:19;98887.91;;;2.96;100.00
3796;BME280;1913;50.660;7.834;2023-02-11T08:46:45;98886.72;;;3.00;100.00
3796;BME280;1913;50.660;7.834;2023-02-11T08:49:11;98891.19;;;2.98;100.00
3796;BME280;1913;50.660;7.834;2023-02-11T08:51:36;98892.75;;;3.00;100.00
3796;BME280;1913;50.660;7.834;2023-02-11T08:54:02;98896.59;;;2.95;100.00
3796;BME280;1913;50.660;7.834;2023-02-11T08:56:28;98900.13;;;3.18;100.00
3796;BME280;1913;50.660;7.834;2023-02-11T08:58:55;98895.25;;;3.13;100.00
3796;BME280;1913;50.660;7.834;2023-02-11T09:01:24;98902.22;;;3.12;100.00
3796;BME280;1913;50.660;7.834;2023-02-11T09:03:51;98901.69;;;3.20;100.00
3796;BME280;1913;50.660;7.834;2023-02-11T09:06:17;98899.50;;;3.03;100.00
3796;BME280;1913;50.660;7.834;2023-02-11T09:08:46;98907.56;;;3.22;100.00
3796;BME280;1913;50.660;7.834;2023-02-11T09:11:14;98898.38;;;3.29;100.00
3796;BME280;1913;50.660;7.834;2023-02-11T09:13:43;98903.00;;;3.37;100.00
3796;BME280;1913;50.660;7.834;2023-02-11T09:16:19;98905.75;;;3.47;100.00
3796;BME280;1913;50.660;7.834;2023-02-11T09:18:45;98906.22;;;3.52;100.00
3796;BME280;1913;50.660;7.834;2023-02-11T09:21:12;98904.78;;;3.48;100.00
3796;BME280;1913;50.660;7.834;2023-02-11T09:23:38;98901.75;;;3.65;100.00
3796;BME280;1913;50.660;7.834;2023-02-11T09:26:16;98905.53;;;3.72;100.00
3796;BME280;1913;50.660;7.834;2023-02-11T09:28:43;98906.03;;;3.89;100.00
3796;BME280;1913;50.660;7.834;2023-02-11T09:31:10;98901.06;;;3.74;100.00
3796;BME280;1913;50.660;7.834;2023-02-11T09:33:38;98899.06;;;3.78;100.00
3796;BME280;1913;50.660;7.834;2023-02-11T09:36:04;98915.00;;;3.84;100.00
3796;BME280;1913;50.660;7.834;2023-02-11T09:38:30;98907.91;;;3.75;100.00
3796;BME280;1913;50.660;7.834;2023-02-11T09:40:56;98924.19;;;3.66;100.00
3796;BME280;1913;50.660;7.834;2023-02-11T09:43:35;98924.78;;;3.70;100.00
3796;BME280;1913;50.660;7.834;2023-02-11T09:46:04;98931.53;;;3.72;100.00
3796;BME280;1913;50.660;7.834;2023-02-11T09:48:36;98936.28;;;3.78;100.00
3796;BME280;1913;50.660;7.834;2023-02-11T09:51:02;98936.28;;;3.67;100.00
3796;BME280;1913;50.660;7.834;2023-02-11T09:53:33;98932.72;;;3.68;100.00
3796;BME280;1913;50.660;7.834;2023-02-11T09:56:01;98940.06;;;3.74;100.00
3796;BME280;1913;50.660;7.834;2023-02-11T09:58:34;98945.13;;;3.65;100.00
3796;BME280;1913;50.660;7.834;2023-02-11T10:06:47;98953.50;;;3.57;100.00
3796;BME280;1913;50.660;7.834;2023-02-11T10:12:17;98963.56;;;3.73;100.00
3796;BME280;1913;50.660;7.834;2023-02-11T10:22:49;98954.84;;;3.74;100.00
3796;BME280;1913;50.660;7.834;2023-02-11T10:25:23;98953.16;;;3.73;100.00
3796;BME280;1913;50.660;7.834;2023-02-11T10:27:51;98948.31;;;3.79;100.00
3796;BME280;1913;50.660;7.834;2023-02-11T10:30:25;98946.31;;;3.83;100.00
3796;BME280;1913;50.660;7.834;2023-02-11T10:32:55;98942.53;;;3.76;100.00
3796;BME280;1913;50.660;7.834;2023-02-11T10:35:22;98951.97;;;3.77;100.00
3796;BME280;1913;50.660;7.834;2023-02-11T10:37:48;98952.84;;;3.77;100.00
3796;BME280;1913;50.660;7.834;2023-02-11T10:40:20;98951.63;;;3.70;100.00
3796;BME280;1913;50.660;7.834;2023-02-11T10:42:48;98955.16;;;3.69;100.00
3796;BME280;1913;50.660;7.834;2023-02-11T10:45:20;98953.44;;;3.81;100.00
3796;BME280;1913;50.660;7.834;2023-02-11T10:47:47;98951.88;;;3.78;100.00
3796;BME280;1913;50.660;7.834;2023-02-11T10:50:32;98952.34;;;3.83;100.00
3796;BME280;1913;50.660;7.834;2023-02-11T10:53:19;98946.09;;;3.75;100.00
3796;BME280;1913;50.660;7.834;2023-02-11T10:55:51;98941.34;;;3.80;100.00
3796;BME280;1913;50.660;7.834;2023-02-11T11:01:01;98941.94;;;3.72;100.00
3796;BME280;1913;50.660;7.834;2023-02-11T11:03:36;98942.06;;;3.71;100.00
3796;BME280;1913;50.660;7.834;2023-02-11T11:06:07;98937.19;;;3.66;100.00
3796;BME280;1913;50.660;7.834;2023-02-11T11:08:47;98935.31;;;3.68;100.00
3796;BME280;1913;50.660;7.834;2023-02-11T11:11:18;98926.56;;;3.58;100.00
3796;BME280;1913;50.660;7.834;2023-02-11T11:18:48;98936.16;;;3.80;100.00
3796;BME280;1913;50.660;7.834;2023-02-11T11:21:24;98943.72;;;3.94;100.00
3796;BME280;1913;50.660;7.834;2023-02-11T11:23:56;98941.72;;;3.87;100.00
3796;BME280;1913;50.660;7.834;2023-02-11T11:26:24;98943.72;;;3.83;100.00
3796;BME280;1913;50.660;7.834;2023-02-11T11:29:05;98945.59;;;3.70;100.00
3796;BME280;1913;50.660;7.834;2023-02-11T11:31:34;98946.91;;;3.64;100.00
3796;BME280;1913;50.660;7.834;2023-02-11T11:36:58;98945.47;;;3.60;100.00
3796;BME280;1913;50.660;7.834;2023-02-11T11:39:27;98942.66;;;3.74;100.00
3796;BME280;1913;50.660;7.834;2023-02-11T11:42:05;98942.91;;;3.82;100.00
3796;BME280;1913;50.660;7.834;2023-02-11T11:45:17;98944.53;;;3.83;100.00
3796;BME280;1913;50.660;7.834;2023-02-11T11:50:43;98937.47;;;3.74;100.00
3796;BME280;1913;50.660;7.834;2023-02-11T11:53:35;98939.94;;;3.76;100.00
3796;BME280;1913;50.660;7.834;2023-02-11T11:56:24;98938.28;;;3.64;100.00
3796;BME280;1913;50.660;7.834;2023-02-11T11:58:50;98939.78;;;3.66;100.00
3796;BME280;1913;50.660;7.834;2023-02-11T12:04:32;98950.22;;;3.77;100.00
3796;BME280;1913;50.660;7.834;2023-02-11T12:23:36;98947.88;;;3.97;100.00
3796;BME280;1913;50.660;7.834;2023-02-11T12:28:43;98942.31;;;4.01;100.00
3796;BME280;1913;50.660;7.834;2023-02-11T12:37:04;98946.34;;;4.17;100.00
3796;BME280;1913;50.660;7.834;2023-02-11T12:45:20;98937.47;;;3.97;100.00
3796;BME280;1913;50.660;7.834;2023-02-11T12:55:45;98941.84;;;4.07;100.00
3796;BME280;1913;50.660;7.834;2023-02-11T12:58:19;98938.19;;;4.10;100.00
3796;BME280;1913;50.660;7.834;2023-02-11T13:00:52;98935.59;;;4.21;100.00
3796;BME280;1913;50.660;7.834;2023-02-11T13:03:39;98932.97;;;4.21;100.00
3796;BME280;1913;50.660;7.834;2023-02-11T13:06:11;98932.63;;;4.15;100.00
3796;BME280;1913;50.660;7.834;2023-02-11T13:09:03;98937.00;;;4.25;100.00
3796;BME280;1913;50.660;7.834;2023-02-11T13:11:39;98926.59;;;4.25;100.00
3796;BME280;1913;50.660;7.834;2023-02-11T13:14:11;98923.75;;;4.28;100.00
3796;BME280;1913;50.660;7.834;2023-02-11T13:16:44;98927.31;;;4.27;100.00
3796;BME280;1913;50.660;7.834;2023-02-11T13:19:16;98925.03;;;4.45;100.00
3796;BME280;1913;50.660;7.834;2023-02-11T13:21:59;98927.31;;;4.27;100.00
3796;BME280;1913;50.660;7.834;2023-02-11T13:24:36;98923.53;;;4.20;100.00
3796;BME280;1913;50.660;7.834;2023-02-11T13:27:15;98917.59;;;4.29;100.00
3796;BME280;1913;50.660;7.834;2023-02-11T13:35:40;98906.47;;;4.39;100.00
3796;BME280;1913;50.660;7.834;2023-02-11T13:40:42;98908.81;;;4.42;100.00
3796;BME280;1913;50.660;7.834;2023-02-11T13:43:20;98908.56;;;4.56;100.00
3796;BME280;1913;50.660;7.834;2023-02-11T13:45:47;98903.34;;;4.56;100.00
3796;BME280;1913;50.660;7.834;2023-02-11T13:48:29;98911.28;;;4.54;100.00
3796;BME280;1913;50.660;7.834;2023-02-11T13:50:59;98901.22;;;4.50;100.00
3796;BME280;1913;50.660;7.834;2023-02-11T13:53:25;98899.22;;;4.53;100.00
3796;BME280;1913;50.660;7.834;2023-02-11T13:56:03;98905.81;;;4.57;100.00
3796;BME280;1913;50.660;7.834;2023-02-11T14:00:54;98910.75;;;4.72;100.00
3796;BME280;1913;50.660;7.834;2023-02-11T14:11:42;98920.47;;;4.70;100.00
3796;BME280;1913;50.660;7.834;2023-02-11T14:19:49;98935.84;;;4.84;100.00
3796;BME280;1913;50.660;7.834;2023-02-11T14:22:18;98934.88;;;4.85;100.00
3796;BME280;1913;50.660;7.834;2023-02-11T14:24:54;98931.19;;;4.88;100.00
3796;BME280;1913;50.660;7.834;2023-02-11T14:27:41;98924.91;;;4.90;100.00
3796;BME280;1913;50.660;7.834;2023-02-11T14:30:24;98913.94;;;4.75;100.00
3796;BME280;1913;50.660;7.834;2023-02-11T14:33:26;98921.13;;;4.83;100.00
3796;BME280;1913;50.660;7.834;2023-02-11T14:36:12;98915.91;;;4.83;100.00
3796;BME280;1913;50.660;7.834;2023-02-11T14:38:59;98914.28;;;4.82;100.00
3796;BME280;1913;50.660;7.834;2023-02-11T14:41:31;98920.34;;;5.03;100.00
3796;BME280;1913;50.660;7.834;2023-02-11T14:44:13;98920.94;;;5.07;100.00
3796;BME280;1913;50.660;7.834;2023-02-11T14:46:43;98926.53;;;5.02;100.00
3796;BME280;1913;50.660;7.834;2023-02-11T14:49:15;98930.34;;;4.98;100.00
3796;BME280;1913;50.660;7.834;2023-02-11T14:51:44;98924.41;;;4.96;100.00
3796;BME280;1913;50.660;7.834;2023-02-11T14:54:17;98932.13;;;4.87;100.00
3796;BME280;1913;50.660;7.834;2023-02-11T14:57:04;98926.09;;;4.86;100.00
3796;BME280;1913;50.660;7.834;2023-02-11T14:59:30;98926.28;;;4.94;100.00
3796;BME280;1913;50.660;7.834;2023-02-11T15:01:55;98920.88;;;4.86;100.00
3796;BME280;1913;50.660;7.834;2023-02-11T15:06:49;98931.06;;;4.89;100.00
3796;BME280;1913;50.660;7.834;2023-02-11T15:12:29;98932.81;;;5.00;100.00
3796;BME280;1913;50.660;7.834;2023-02-11T15:14:56;98932.84;;;4.89;100.00
3796;BME280;1913;50.660;7.834;2023-02-11T15:17:26;98927.63;;;4.89;100.00
3796;BME280;1913;50.660;7.834;2023-02-11T15:19:56;98932.84;;;4.89;100.00
3796;BME280;1913;50.660;7.834;2023-02-11T15:22:27;98943.88;;;4.81;100.00
3796;BME280;1913;50.660;7.834;2023-02-11T15:25:15;98948.81;;;4.95;100.00
3796;BME280;1913;50.660;7.834;2023-02-11T15:27:47;98960.09;;;4.85;100.00
3796;BME280;1913;50.660;7.834;2023-02-11T15:32:52;98957.00;;;4.79;100.00
3796;BME280;1913;50.660;7.834;2023-02-11T15:35:24;98960.72;;;4.77;100.00
3796;BME280;1913;50.660;7.834;2023-02-11T15:37:53;98952.53;;;4.82;100.00
3796;BME280;1913;50.660;7.834;2023-02-11T15:40:25;98962.91;;;4.93;100.00
3796;BME280;1913;50.660;7.834;2023-02-11T15:43:06;98968.16;;;4.82;100.00
3796;BME280;1913;50.660;7.834;2023-02-11T15:45:34;98966.13;;;4.85;100.00
3796;BME280;1913;50.660;7.834;2023-02-11T15:50:34;98976.41;;;4.87;100.00
3796;BME280;1913;50.660;7.834;2023-02-11T15:53:54;98975.06;;;5.03;100.00
3796;BME280;1913;50.660;7.834;2023-02-11T15:56:29;98972.94;;;4.97;100.00
3796;BME280;1913;50.660;7.834;2023-02-11T15:58:59;98970.19;;;5.10;100.00